Denali National Park and Preserve, AK

6:12 PM AKST on February 05, 2016 (GMT -0900)
RAWS | | Change Station
CLOSE
Current Station
Personal Weather Station
Location: Healy, AK
Elevation: 1649 ft
Nearby Weather Stations

Elev 1649 ft 63.74 °N, 148.90 °W | Updated 5 hours ago

Scattered Clouds
Scattered Clouds
33.0 °F
Feels Like 33.0 °F
N
2.0
Wind Variable Wind from South
Gusts 12.0 mph

Today
High -- | Low -- °F
--% Chance of Precip.
Yesterday
High -- | Low -- °F
Precip. -- in
Pressure 29.22 in
Visibility 10.0 miles
Clouds Scattered Clouds 12000 ft
Dew Point 18.0 °F
Humidity 54%
Rainfall in
Snow Depth Not available.
9:21 AM 4:58 PM
Waning Crescent, 8% visible
METAR PAIN 060256Z AUTO 00000KT 10SM SCT120 M01/M07 A2922 RMK AO1 52020
Pressure 29.22 in
Visibility 10.0 miles
Clouds Scattered Clouds 12000 ft
Dew Point 18.0 °F
Humidity 54%
Rainfall in
Snow Depth Not available.
9:21 AM 4:58 PM
Waning Crescent, 8% visible
METAR PAIN 060256Z AUTO 00000KT 10SM SCT120 M01/M07 A2922 RMK AO1 52020

10-Day Weather Forecast

Almanac

Astronomy

Feb. 05, 2016 Rise Set
Actual Time
Civil Twilight
Nautical Twilight
Astronomical Twilight
Moon
Length of Visible Light
Length of Day
Tomorrow will be .
, % of the Moon is Illuminated

Today's Extremes

State Highs State Lows

Community

WunderPhotos

Upload Photos

1,890,915 photos uploaded!

WunderBlog® & News

Nearby

Air Quality

  Air Quality AQ Index Pollutant
Not available.

Snow Depth

Station Depth Elevation

Earthquake Activity

City Distance Mag. Time & Date
Minimum magnitude displayed is 2.5.

Coastal Water Temperatures

Place Temperature

Stations

Nearby Weather Stations

Station Location Temp. Windchill Dew Point Humidity Wind Precip. Elev Updated Type
                   

Watches & Warnings

There are currently no watches in effect.